createdAt,value
2018-09-18T00:00:01.076Z,7.10
2018-09-18T00:01:01.093Z,6.30
2018-09-18T00:02:01.210Z,6.20
2018-09-18T00:03:01.120Z,6.20
2018-09-18T00:04:01.136Z,6.10
2018-09-18T00:05:01.153Z,6.30
2018-09-18T00:06:01.157Z,6.40
2018-09-18T00:07:01.280Z,6.20
2018-09-18T00:08:01.183Z,6.00
2018-09-18T00:09:01.211Z,6.50
2018-09-18T00:10:01.212Z,6.60
2018-09-18T00:11:01.245Z,6.00
2018-09-18T00:12:01.393Z,6.30
2018-09-18T00:13:01.257Z,7.30
2018-09-18T00:14:01.285Z,5.40
2018-09-18T00:15:01.288Z,6.00
2018-09-18T00:16:01.311Z,5.90
2018-09-18T00:17:01.472Z,5.60
2018-09-18T00:18:01.339Z,5.50
2018-09-18T00:19:01.345Z,5.70
2018-09-18T00:20:01.366Z,5.50
2018-09-18T00:21:01.386Z,6.30
2018-09-18T00:22:01.658Z,5.40
2018-09-18T00:23:01.419Z,5.80
2018-09-18T00:24:01.421Z,5.20
2018-09-18T00:25:01.442Z,5.30
2018-09-18T00:26:01.458Z,5.20
2018-09-18T00:27:01.724Z,5.30
2018-09-18T00:28:01.473Z,5.10
2018-09-18T00:29:01.488Z,5.00
2018-09-18T00:30:01.523Z,5.20
2018-09-18T00:31:01.534Z,5.00
2018-09-18T00:32:01.640Z,5.10
2018-09-18T00:33:01.551Z,5.30
2018-09-18T00:34:01.580Z,5.30
2018-09-18T00:35:01.592Z,5.60
2018-09-18T00:36:01.609Z,5.70
2018-09-18T00:37:01.716Z,5.90
2018-09-18T00:38:01.626Z,5.60
2018-09-18T00:39:01.645Z,5.70
2018-09-18T00:40:01.656Z,7.20
2018-09-18T00:41:01.681Z,7.00
2018-09-18T00:42:01.792Z,6.00
2018-09-18T00:43:01.699Z,5.70
2018-09-18T00:44:01.709Z,6.00
2018-09-18T00:45:01.740Z,5.80
2018-09-18T00:46:01.747Z,5.90
2018-09-18T00:47:01.850Z,6.50
2018-09-18T00:48:01.773Z,5.40
2018-09-18T00:49:01.785Z,5.70
2018-09-18T00:50:01.809Z,5.70
2018-09-18T00:51:01.826Z,6.00
2018-09-18T00:52:01.936Z,5.80
2018-09-18T00:53:01.852Z,6.00
2018-09-18T00:54:01.871Z,6.20
2018-09-18T00:55:01.892Z,5.70
2018-09-18T00:56:01.891Z,5.20
2018-09-18T00:57:02.166Z,5.20
2018-09-18T00:58:01.932Z,5.40
2018-09-18T00:59:01.946Z,6.00
2018-09-18T01:00:01.983Z,6.00
2018-09-18T01:01:01.971Z,5.90
2018-09-18T01:02:01.986Z,6.10
2018-09-18T01:03:02.088Z,6.60
2018-09-18T01:04:02.013Z,6.00
2018-09-18T01:05:02.035Z,7.10
2018-09-18T01:06:02.029Z,5.80
2018-09-18T01:07:02.055Z,6.00
2018-09-18T01:08:02.061Z,5.80
2018-09-18T01:09:02.182Z,5.60
2018-09-18T01:10:02.101Z,5.80
2018-09-18T01:11:02.108Z,6.20
2018-09-18T01:12:02.664Z,5.70
2018-09-18T01:13:02.146Z,6.10
2018-09-18T01:14:02.261Z,6.10
2018-09-18T01:15:02.177Z,6.00
2018-09-18T01:16:02.175Z,5.50
2018-09-18T01:17:02.196Z,6.20
2018-09-18T01:18:02.219Z,6.20
2018-09-18T01:19:02.339Z,6.30
2018-09-18T01:20:02.241Z,5.80
2018-09-18T01:21:02.264Z,5.80
2018-09-18T01:22:02.276Z,5.70
2018-09-18T01:23:02.285Z,5.30
2018-09-18T01:24:02.398Z,5.70
2018-09-18T01:25:02.319Z,5.50
2018-09-18T01:26:02.327Z,5.90
2018-09-18T01:27:02.357Z,5.70
2018-09-18T01:28:02.360Z,5.40
2018-09-18T01:29:02.468Z,5.40
2018-09-18T01:30:02.390Z,5.70
2018-09-18T01:31:02.412Z,6.00
2018-09-18T01:32:02.422Z,5.60
2018-09-18T01:33:02.443Z,5.60
2018-09-18T01:34:02.544Z,6.10
2018-09-18T01:35:02.463Z,6.10
2018-09-18T01:36:02.484Z,5.90
2018-09-18T01:37:02.485Z,6.10
2018-09-18T01:38:02.503Z,6.00
2018-09-18T01:39:02.674Z,5.70
2018-09-18T01:40:02.546Z,5.80
2018-09-18T01:41:02.556Z,6.20
2018-09-18T01:42:02.573Z,5.90
2018-09-18T01:43:02.583Z,6.20
2018-09-18T01:44:02.710Z,6.20
2018-09-18T01:45:02.621Z,6.10
2018-09-18T01:46:02.619Z,6.20
2018-09-18T01:47:02.642Z,6.70
2018-09-18T01:48:02.662Z,6.10
2018-09-18T01:49:02.921Z,6.50
2018-09-18T01:50:02.672Z,6.20
2018-09-18T01:51:02.701Z,6.40
2018-09-18T01:52:02.707Z,6.70
2018-09-18T01:53:02.752Z,6.50
2018-09-18T01:54:02.868Z,7.20
2018-09-18T01:55:02.754Z,6.60
2018-09-18T01:56:02.768Z,7.20
2018-09-18T01:57:02.792Z,6.50
2018-09-18T01:58:02.806Z,6.60
2018-09-18T01:59:02.941Z,6.50
2018-09-18T02:00:02.835Z,6.90
2018-09-18T02:01:02.838Z,7.10
2018-09-18T02:02:02.864Z,7.10
2018-09-18T02:03:02.868Z,7.00
2018-09-18T02:04:02.994Z,6.90
2018-09-18T02:05:02.905Z,7.30
2018-09-18T02:06:02.926Z,7.90
2018-09-18T02:07:02.931Z,7.70
2018-09-18T02:08:02.946Z,7.60
2018-09-18T02:09:03.125Z,6.80
2018-09-18T02:10:02.987Z,6.50
2018-09-18T02:11:02.984Z,5.80
2018-09-18T02:12:03.017Z,6.90
2018-09-18T02:13:03.027Z,5.40
2018-09-18T02:14:03.045Z,5.50
2018-09-18T02:15:03.191Z,5.60
2018-09-18T02:16:03.066Z,5.50
2018-09-18T02:17:03.089Z,5.30
2018-09-18T02:18:03.098Z,5.60
2018-09-18T02:19:03.105Z,5.60
2018-09-18T02:20:03.488Z,6.20
2018-09-18T02:21:03.142Z,6.50
2018-09-18T02:22:03.163Z,5.80
2018-09-18T02:23:03.179Z,5.70
2018-09-18T02:24:03.202Z,5.70
2018-09-18T02:25:03.307Z,5.50
2018-09-18T02:26:03.219Z,5.60
2018-09-18T02:27:03.228Z,5.40
2018-09-18T02:28:03.249Z,5.70
2018-09-18T02:29:03.308Z,5.70
2018-09-18T02:30:03.375Z,7.40
2018-09-18T02:31:03.278Z,5.80
2018-09-18T02:32:03.299Z,6.40
2018-09-18T02:33:03.310Z,6.00
2018-09-18T02:34:03.351Z,5.90
2018-09-18T02:35:03.505Z,5.70
2018-09-18T02:36:03.360Z,6.20
2018-09-18T02:37:03.373Z,6.70
2018-09-18T02:38:03.384Z,5.80
2018-09-18T02:39:03.413Z,6.00
2018-09-18T02:40:03.528Z,5.90
2018-09-18T02:41:03.443Z,5.90
2018-09-18T02:42:03.483Z,7.80
2018-09-18T02:43:03.473Z,7.50
2018-09-18T02:44:03.517Z,6.20
2018-09-18T02:45:03.600Z,6.30
2018-09-18T02:46:03.513Z,6.00
2018-09-18T02:47:03.524Z,6.20
2018-09-18T02:48:03.529Z,5.90
2018-09-18T02:49:03.550Z,5.80
2018-09-18T02:50:03.688Z,5.60
2018-09-18T02:51:03.588Z,5.90
2018-09-18T02:52:03.630Z,6.00
2018-09-18T02:53:03.664Z,6.20
2018-09-18T02:54:03.642Z,5.90
2018-09-18T02:55:03.838Z,6.40
2018-09-18T02:56:03.649Z,7.00
2018-09-18T02:57:03.671Z,6.90
2018-09-18T02:58:03.692Z,6.80
2018-09-18T02:59:03.764Z,6.80
2018-09-18T03:00:03.817Z,6.80
2018-09-18T03:01:03.732Z,6.80
2018-09-18T03:02:03.751Z,7.00
2018-09-18T03:03:03.814Z,6.80
2018-09-18T03:04:03.833Z,6.60
2018-09-18T03:05:03.879Z,8.30
2018-09-18T03:06:03.812Z,6.70
2018-09-18T03:07:03.824Z,6.10
2018-09-18T03:08:03.839Z,6.10
2018-09-18T03:09:03.892Z,6.00
2018-09-18T03:10:03.956Z,6.60
2018-09-18T03:11:03.883Z,6.10
2018-09-18T03:12:03.889Z,6.10
2018-09-18T03:13:03.912Z,6.50
2018-09-18T03:14:03.928Z,6.30
2018-09-18T03:15:04.032Z,6.90
2018-09-18T03:16:03.944Z,6.10
2018-09-18T03:17:04.010Z,6.40
2018-09-18T03:18:03.980Z,6.20
2018-09-18T03:19:04.015Z,5.90
2018-09-18T03:20:04.151Z,6.10
2018-09-18T03:21:04.090Z,6.30
2018-09-18T03:22:04.044Z,6.60
2018-09-18T03:23:04.045Z,7.10
2018-09-18T03:24:04.057Z,6.20
2018-09-18T03:25:04.179Z,6.00
2018-09-18T03:26:04.094Z,6.40
2018-09-18T03:27:04.113Z,8.00
2018-09-18T03:28:04.113Z,7.20
2018-09-18T03:29:04.137Z,6.80
2018-09-18T03:30:04.317Z,7.70
2018-09-18T03:31:04.179Z,6.70
2018-09-18T03:32:04.197Z,9.00
2018-09-18T03:33:04.189Z,8.30
2018-09-18T03:34:04.255Z,6.10
2018-09-18T03:35:04.376Z,6.00
2018-09-18T03:36:04.244Z,6.60
2018-09-18T03:37:04.251Z,6.80
2018-09-18T03:38:04.286Z,7.60
2018-09-18T03:39:04.324Z,7.70
2018-09-18T03:40:04.484Z,6.50
2018-09-18T03:41:04.312Z,6.60
2018-09-18T03:42:04.347Z,6.10
2018-09-18T03:43:04.386Z,6.10
2018-09-18T03:44:04.438Z,7.10
2018-09-18T03:45:04.612Z,6.10
2018-09-18T03:46:04.455Z,6.10
2018-09-18T03:47:04.392Z,6.10
2018-09-18T03:48:04.420Z,6.50
2018-09-18T03:49:04.456Z,7.00
2018-09-18T03:50:04.553Z,6.50
2018-09-18T03:51:04.458Z,8.60
2018-09-18T03:52:04.494Z,7.70
2018-09-18T03:53:04.525Z,10.70
2018-09-18T03:54:04.543Z,11.80
2018-09-18T03:55:04.614Z,9.10
2018-09-18T03:56:04.548Z,10.60
2018-09-18T03:57:04.550Z,9.70
2018-09-18T03:58:04.613Z,13.10
2018-09-18T03:59:04.569Z,11.60
2018-09-18T04:00:04.703Z,10.80
2018-09-18T04:01:04.606Z,9.60
2018-09-18T04:02:04.615Z,10.50
2018-09-18T04:03:04.634Z,11.60
2018-09-18T04:04:04.681Z,11.80
2018-09-18T04:05:04.765Z,10.60
2018-09-18T04:06:04.725Z,11.40
2018-09-18T04:07:04.681Z,9.00
2018-09-18T04:08:04.709Z,10.20
2018-09-18T04:09:04.766Z,8.80
2018-09-18T04:10:04.913Z,7.10
2018-09-18T04:11:04.751Z,9.60
2018-09-18T04:12:04.770Z,8.60
2018-09-18T04:13:04.816Z,8.90
2018-09-18T04:14:04.820Z,8.90
2018-09-18T04:15:05.084Z,9.50
2018-09-18T04:16:04.823Z,9.70
2018-09-18T04:17:04.863Z,7.60
2018-09-18T04:18:04.864Z,7.70
2018-09-18T04:19:04.884Z,7.80
2018-09-18T04:20:04.922Z,7.60
2018-09-18T04:21:04.997Z,9.10
2018-09-18T04:22:04.909Z,8.40
2018-09-18T04:23:04.975Z,9.10
2018-09-18T04:24:04.947Z,8.10
2018-09-18T04:25:04.959Z,7.70
2018-09-18T04:26:05.061Z,8.60
2018-09-18T04:27:04.979Z,7.80
2018-09-18T04:28:04.995Z,8.50
2018-09-18T04:29:05.028Z,7.30
2018-09-18T04:30:05.025Z,7.50
2018-09-18T04:31:05.030Z,7.00
2018-09-18T04:32:05.406Z,7.60
2018-09-18T04:33:05.142Z,7.40
2018-09-18T04:34:05.091Z,7.80
2018-09-18T04:35:05.099Z,6.40
2018-09-18T04:36:05.100Z,6.90
2018-09-18T04:37:05.304Z,6.70
2018-09-18T04:38:05.135Z,7.50
2018-09-18T04:39:05.181Z,8.30
2018-09-18T04:40:05.171Z,7.10
2018-09-18T04:41:05.211Z,7.20
2018-09-18T04:42:05.447Z,7.20
2018-09-18T04:43:05.205Z,7.30
2018-09-18T04:44:05.259Z,8.00
2018-09-18T04:45:05.248Z,9.10
2018-09-18T04:46:05.334Z,9.20
2018-09-18T04:47:05.467Z,8.60
2018-09-18T04:48:05.271Z,8.20
2018-09-18T04:49:05.313Z,9.70
2018-09-18T04:50:05.303Z,10.00
2018-09-18T04:51:05.332Z,9.80
2018-09-18T04:52:05.535Z,10.40
2018-09-18T04:53:05.362Z,8.50
2018-09-18T04:54:05.359Z,7.60
2018-09-18T04:55:05.490Z,8.70
2018-09-18T04:56:05.408Z,9.30
2018-09-18T04:57:05.517Z,7.80
2018-09-18T04:58:05.446Z,10.20
2018-09-18T04:59:05.462Z,12.10
2018-09-18T05:00:05.465Z,13.60
2018-09-18T05:01:05.462Z,27.50
2018-09-18T05:02:05.776Z,33.30
2018-09-18T05:03:05.507Z,38.60
2018-09-18T05:04:05.543Z,47.50
2018-09-18T05:05:05.575Z,48.80
2018-09-18T05:06:05.548Z,45.90
2018-09-18T05:07:05.702Z,53.20
2018-09-18T05:08:05.608Z,70.10
2018-09-18T05:09:05.627Z,79.60
2018-09-18T05:10:05.603Z,68.60
2018-09-18T05:11:05.622Z,94.60
2018-09-18T05:12:05.782Z,98.80
2018-09-18T05:13:05.637Z,88.70
2018-09-18T05:14:05.724Z,68.40
2018-09-18T05:15:05.696Z,75.00
2018-09-18T05:16:05.679Z,75.60
2018-09-18T05:17:05.962Z,89.00
2018-09-18T05:18:05.707Z,101.60
2018-09-18T05:19:05.718Z,87.80
2018-09-18T05:20:05.749Z,96.80
2018-09-18T05:21:05.760Z,95.40
2018-09-18T05:22:05.879Z,111.20
2018-09-18T05:23:05.793Z,92.90
2018-09-18T05:24:05.840Z,96.90
2018-09-18T05:25:05.816Z,108.40
2018-09-18T05:26:05.838Z,111.80
2018-09-18T05:27:05.991Z,109.40
2018-09-18T05:28:05.852Z,90.10
2018-09-18T05:29:05.906Z,84.60
2018-09-18T05:30:05.875Z,82.10
2018-09-18T05:31:05.891Z,89.30
2018-09-18T05:32:06.013Z,85.40
2018-09-18T05:33:05.924Z,87.20
2018-09-18T05:34:05.968Z,82.80
2018-09-18T05:35:05.965Z,85.00
2018-09-18T05:36:05.983Z,73.40
2018-09-18T05:37:06.091Z,73.70
2018-09-18T05:38:05.990Z,73.90
2018-09-18T05:39:06.059Z,72.40
2018-09-18T05:40:06.018Z,77.50
2018-09-18T05:41:06.047Z,75.80
2018-09-18T05:42:06.239Z,74.70
2018-09-18T05:43:06.060Z,67.60
2018-09-18T05:44:06.109Z,71.00
2018-09-18T05:45:06.091Z,70.40
2018-09-18T05:46:06.113Z,71.20
2018-09-18T05:47:06.381Z,75.50
2018-09-18T05:48:06.726Z,70.80
2018-09-18T05:49:06.693Z,74.60
2018-09-18T05:50:06.161Z,74.50
2018-09-18T05:51:06.172Z,80.40
2018-09-18T05:52:06.346Z,97.30
2018-09-18T05:53:06.208Z,94.10
2018-09-18T05:54:06.231Z,110.30
2018-09-18T05:55:06.228Z,107.90
2018-09-18T05:56:06.241Z,111.80
2018-09-18T05:57:06.417Z,105.00
2018-09-18T05:58:06.798Z,108.10
2018-09-18T05:59:06.278Z,101.60
2018-09-18T06:00:06.312Z,67.70
2018-09-18T06:01:06.324Z,74.00
2018-09-18T06:02:06.578Z,70.00
2018-09-18T06:03:06.338Z,70.20
2018-09-18T06:04:06.368Z,76.50
2018-09-18T06:05:06.375Z,75.00
2018-09-18T06:06:06.396Z,70.70
2018-09-18T06:07:06.539Z,90.70
2018-09-18T06:08:06.403Z,100.80
2018-09-18T06:09:06.424Z,88.70
2018-09-18T06:10:06.447Z,92.80
2018-09-18T06:11:06.448Z,90.90
2018-09-18T06:12:06.728Z,87.20
2018-09-18T06:13:06.493Z,85.00
2018-09-18T06:14:06.506Z,78.90
2018-09-18T06:15:06.501Z,86.30
2018-09-18T06:16:06.518Z,91.30
2018-09-18T06:17:06.788Z,95.80
2018-09-18T06:18:06.562Z,70.60
2018-09-18T06:19:06.613Z,71.50
2018-09-18T06:20:06.585Z,74.60
2018-09-18T06:21:06.601Z,88.30
2018-09-18T06:22:06.747Z,92.70
2018-09-18T06:23:06.618Z,84.20
2018-09-18T06:24:06.668Z,85.70
2018-09-18T06:25:06.639Z,82.50
2018-09-18T06:26:06.670Z,68.60
2018-09-18T06:27:06.829Z,62.00
2018-09-18T06:28:06.695Z,58.40
2018-09-18T06:29:06.697Z,58.50
2018-09-18T06:30:06.706Z,65.30
2018-09-18T06:31:06.740Z,62.30
2018-09-18T06:32:06.900Z,75.30
2018-09-18T06:33:06.762Z,76.90
2018-09-18T06:34:06.783Z,85.30
2018-09-18T06:35:06.796Z,72.60
2018-09-18T06:36:06.795Z,53.50
2018-09-18T06:37:07.072Z,53.00
2018-09-18T06:38:06.842Z,48.20
2018-09-18T06:39:06.839Z,42.50
2018-09-18T06:40:06.867Z,46.10
2018-09-18T06:41:06.877Z,54.80
2018-09-18T06:42:06.882Z,60.10
2018-09-18T06:43:07.146Z,53.50
2018-09-18T06:44:06.922Z,44.70
2018-09-18T06:45:06.944Z,44.40
2018-09-18T06:46:06.945Z,45.10
2018-09-18T06:47:06.962Z,39.20
2018-09-18T06:48:07.126Z,40.50
2018-09-18T06:49:07.242Z,36.70
2018-09-18T06:50:06.989Z,37.30
2018-09-18T06:51:07.007Z,35.70
2018-09-18T06:52:07.014Z,37.00
2018-09-18T06:53:07.037Z,35.10
2018-09-18T06:54:07.309Z,36.50
2018-09-18T06:55:07.075Z,39.10
2018-09-18T06:56:07.077Z,35.40
2018-09-18T06:57:07.104Z,29.90
2018-09-18T06:58:07.103Z,34.20
2018-09-18T06:59:07.229Z,34.40
2018-09-18T07:00:07.143Z,39.20
2018-09-18T07:01:07.141Z,42.30
2018-09-18T07:02:07.165Z,40.70
2018-09-18T07:03:07.186Z,42.70
2018-09-18T07:04:07.302Z,41.60
2018-09-18T07:05:07.216Z,37.60
2018-09-18T07:06:07.227Z,51.50
2018-09-18T07:07:07.232Z,56.20
2018-09-18T07:08:07.241Z,52.40
2018-09-18T07:09:07.507Z,52.90
2018-09-18T07:10:07.284Z,58.40
2018-09-18T07:11:07.289Z,53.00
2018-09-18T07:12:07.298Z,53.60
2018-09-18T07:13:07.323Z,37.90
2018-09-18T07:14:07.481Z,43.00
2018-09-18T07:15:07.345Z,40.50
2018-09-18T07:16:07.370Z,43.80
2018-09-18T07:17:07.381Z,41.70
2018-09-18T07:18:07.463Z,40.90
2018-09-18T07:19:07.549Z,36.10
2018-09-18T07:20:07.429Z,36.60
2018-09-18T07:21:07.429Z,37.60
2018-09-18T07:22:07.449Z,38.00
2018-09-18T07:23:07.469Z,39.40
2018-09-18T07:24:07.620Z,39.70
2018-09-18T07:25:07.486Z,32.70
2018-09-18T07:26:07.497Z,28.90
2018-09-18T07:27:07.511Z,30.60
2018-09-18T07:28:07.533Z,34.80
2018-09-18T07:29:07.649Z,35.60
2018-09-18T07:30:07.558Z,34.70
2018-09-18T07:31:07.572Z,32.30
2018-09-18T07:32:07.585Z,39.50
2018-09-18T07:33:07.612Z,47.60
2018-09-18T07:34:07.869Z,42.00
2018-09-18T07:35:07.641Z,35.80
2018-09-18T07:36:07.700Z,30.70
2018-09-18T07:37:07.656Z,32.90
2018-09-18T07:38:07.678Z,32.30
2018-09-18T07:39:07.932Z,31.40
2018-09-18T07:40:07.711Z,20.00
2018-09-18T07:41:07.741Z,23.30
2018-09-18T07:42:07.723Z,21.90
2018-09-18T07:43:07.751Z,23.70
2018-09-18T07:44:08.396Z,29.00
2018-09-18T07:45:07.767Z,28.20
2018-09-18T07:46:07.783Z,28.90
2018-09-18T07:47:07.797Z,29.90
2018-09-18T07:48:07.812Z,27.50
2018-09-18T07:49:07.973Z,27.20
2018-09-18T07:50:07.848Z,25.70
2018-09-18T07:51:07.863Z,29.50
2018-09-18T07:52:07.888Z,20.20
2018-09-18T07:53:07.898Z,27.40
2018-09-18T07:54:08.161Z,17.10
2018-09-18T07:55:07.922Z,16.50
2018-09-18T07:56:07.940Z,15.40
2018-09-18T07:57:07.943Z,14.30
2018-09-18T07:58:07.964Z,11.30
2018-09-18T07:59:07.964Z,10.40
2018-09-18T08:00:08.240Z,10.00
2018-09-18T08:01:08.554Z,10.60
2018-09-18T08:02:08.013Z,8.90
2018-09-18T08:03:08.564Z,8.00
2018-09-18T08:04:08.049Z,8.90
2018-09-18T08:05:08.203Z,8.80
2018-09-18T08:06:08.083Z,9.30
2018-09-18T08:07:08.095Z,7.00
2018-09-18T08:08:08.115Z,5.90
2018-09-18T08:09:08.123Z,5.70
2018-09-18T08:10:08.389Z,7.40
2018-09-18T08:11:08.143Z,7.20
2018-09-18T08:12:08.170Z,6.80
2018-09-18T08:13:08.178Z,6.70
2018-09-18T08:14:08.196Z,6.20
2018-09-18T08:15:08.465Z,9.80
2018-09-18T08:16:08.222Z,20.10
2018-09-18T08:17:08.237Z,17.90
2018-09-18T08:18:08.237Z,10.90
2018-09-18T08:19:08.336Z,14.40
2018-09-18T08:20:08.422Z,11.60
2018-09-18T08:21:08.292Z,7.90
2018-09-18T08:22:08.453Z,8.60
2018-09-18T08:23:08.319Z,9.30
2018-09-18T08:24:08.343Z,9.50
2018-09-18T08:25:08.477Z,9.20
2018-09-18T08:26:08.353Z,7.10
2018-09-18T08:27:08.373Z,8.70
2018-09-18T08:28:08.402Z,9.60
2018-09-18T08:29:08.408Z,7.60
2018-09-18T08:30:08.679Z,6.20
2018-09-18T08:31:08.424Z,8.00
2018-09-18T08:32:08.441Z,8.90
2018-09-18T08:33:08.456Z,6.20
2018-09-18T08:34:08.485Z,6.80
2018-09-18T08:35:08.635Z,6.60
2018-09-18T08:36:08.494Z,8.60
2018-09-18T08:37:08.510Z,5.90
2018-09-18T08:38:08.536Z,5.50
2018-09-18T08:39:08.541Z,6.60
2018-09-18T08:40:08.801Z,8.30
2018-09-18T08:41:08.600Z,5.90
2018-09-18T08:42:08.596Z,8.50
2018-09-18T08:43:08.693Z,7.90
2018-09-18T08:44:08.632Z,6.10
2018-09-18T08:45:08.883Z,6.50
2018-09-18T08:46:08.713Z,5.80
2018-09-18T08:47:08.756Z,6.40
2018-09-18T08:48:08.673Z,5.60
2018-09-18T08:49:08.700Z,6.40
2018-09-18T08:50:08.956Z,6.50
2018-09-18T08:51:08.722Z,5.40
2018-09-18T08:52:08.923Z,6.50
2018-09-18T08:53:08.752Z,6.70
2018-09-18T08:54:08.772Z,6.90
2018-09-18T08:55:08.936Z,5.50
2018-09-18T08:56:08.809Z,6.40
2018-09-18T08:57:08.821Z,6.60
2018-09-18T08:58:08.822Z,5.70
2018-09-18T08:59:08.831Z,6.10
2018-09-18T09:00:08.989Z,5.40
2018-09-18T09:01:08.934Z,5.30
2018-09-18T09:02:08.877Z,5.70
2018-09-18T09:03:08.937Z,7.50
2018-09-18T09:04:08.907Z,6.70
2018-09-18T09:05:09.038Z,7.10
2018-09-18T09:06:09.165Z,6.10
2018-09-18T09:07:08.945Z,5.70
2018-09-18T09:08:09.142Z,5.80
2018-09-18T09:09:09.103Z,5.40
2018-09-18T09:10:09.017Z,6.80
2018-09-18T09:11:09.266Z,7.30
2018-09-18T09:12:09.020Z,6.90
2018-09-18T09:13:09.042Z,6.80
2018-09-18T09:14:09.057Z,9.20
2018-09-18T09:15:09.104Z,11.70
2018-09-18T09:16:09.243Z,13.00
2018-09-18T09:17:09.101Z,10.60
2018-09-18T09:18:09.217Z,7.60
2018-09-18T09:19:09.120Z,9.00
2018-09-18T09:20:09.138Z,8.80
2018-09-18T09:21:09.430Z,7.20
2018-09-18T09:22:09.307Z,11.20
2018-09-18T09:23:09.211Z,8.00
2018-09-18T09:24:09.190Z,8.10
2018-09-18T09:25:09.209Z,9.70
2018-09-18T09:26:09.481Z,8.30
2018-09-18T09:27:09.237Z,6.60
2018-09-18T09:28:09.264Z,8.30
2018-09-18T09:29:09.277Z,7.40
2018-09-18T09:30:09.432Z,8.60
2018-09-18T09:31:09.563Z,6.60
2018-09-18T09:32:09.376Z,7.30
2018-09-18T09:33:09.345Z,8.40
2018-09-18T09:34:09.342Z,8.70
2018-09-18T09:35:09.388Z,11.30
2018-09-18T09:36:09.621Z,8.50
2018-09-18T09:37:09.466Z,9.70
2018-09-18T09:38:09.407Z,10.10
2018-09-18T09:39:09.403Z,12.30
2018-09-18T09:40:09.423Z,15.10
2018-09-18T09:41:09.596Z,13.70
2018-09-18T09:42:09.448Z,10.90
2018-09-18T09:43:09.461Z,15.90
2018-09-18T09:44:09.488Z,13.50
2018-09-18T09:45:10.059Z,10.80
2018-09-18T09:46:09.605Z,11.00
2018-09-18T09:47:09.520Z,9.10
2018-09-18T09:48:09.534Z,11.40
2018-09-18T09:49:09.549Z,9.30
2018-09-18T09:50:09.570Z,7.60
2018-09-18T09:51:09.985Z,7.60
2018-09-18T09:52:09.606Z,6.80
2018-09-18T09:53:09.609Z,6.10
2018-09-18T09:54:09.620Z,7.80
2018-09-18T09:55:09.632Z,7.30
2018-09-18T09:56:09.768Z,7.70
2018-09-18T09:57:09.668Z,7.50
2018-09-18T09:58:09.700Z,6.60
2018-09-18T09:59:09.693Z,6.50
2018-09-18T10:00:09.710Z,7.90
2018-09-18T10:01:10.008Z,6.40
2018-09-18T10:02:09.753Z,6.90
2018-09-18T10:03:09.764Z,6.30
2018-09-18T10:04:09.772Z,6.00
2018-09-18T10:05:10.313Z,7.10
2018-09-18T10:06:09.815Z,6.10
2018-09-18T10:07:09.978Z,5.90
2018-09-18T10:08:09.830Z,6.50
2018-09-18T10:09:09.844Z,6.30
2018-09-18T10:10:09.857Z,6.40
2018-09-18T10:11:09.872Z,6.70
2018-09-18T10:12:09.895Z,5.80
2018-09-18T10:13:10.042Z,6.00
2018-09-18T10:14:09.934Z,6.00
2018-09-18T10:15:09.987Z,6.20
2018-09-18T10:16:09.948Z,5.60
2018-09-18T10:17:09.976Z,6.80
2018-09-18T10:18:10.030Z,7.30
2018-09-18T10:19:10.252Z,7.50
2018-09-18T10:20:10.019Z,5.20
2018-09-18T10:21:10.021Z,5.40
2018-09-18T10:22:10.036Z,6.00
2018-09-18T10:23:10.061Z,8.20
2018-09-18T10:24:10.352Z,5.10
2018-09-18T10:25:10.140Z,5.30
2018-09-18T10:26:10.159Z,5.30
2018-09-18T10:27:10.117Z,6.70
2018-09-18T10:28:10.142Z,6.20
2018-09-18T10:29:10.255Z,6.20
2018-09-18T10:30:10.165Z,5.40
2018-09-18T10:31:10.191Z,6.20
2018-09-18T10:32:10.191Z,6.00
2018-09-18T10:33:10.203Z,6.80
2018-09-18T10:34:10.346Z,6.50
2018-09-18T10:35:10.238Z,6.80
2018-09-18T10:36:10.245Z,6.40
2018-09-18T10:37:10.269Z,5.50
2018-09-18T10:38:10.291Z,6.20
2018-09-18T10:39:10.437Z,7.00
2018-09-18T10:40:10.303Z,6.70
2018-09-18T10:41:10.444Z,7.00
2018-09-18T10:42:10.574Z,6.10
2018-09-18T10:43:10.353Z,6.50
2018-09-18T10:44:10.463Z,6.70
2018-09-18T10:45:10.377Z,6.40
2018-09-18T10:46:10.417Z,6.40
2018-09-18T10:47:10.444Z,8.30
2018-09-18T10:48:10.450Z,6.70
2018-09-18T10:49:10.694Z,6.80
2018-09-18T10:50:10.465Z,7.10
2018-09-18T10:51:10.476Z,6.70
2018-09-18T10:52:10.494Z,6.40
2018-09-18T10:53:10.505Z,6.30
2018-09-18T10:54:10.771Z,6.40
2018-09-18T10:55:10.524Z,6.40
2018-09-18T10:56:10.551Z,6.50
2018-09-18T10:57:10.568Z,6.20
2018-09-18T10:58:10.566Z,6.80
2018-09-18T10:59:10.836Z,7.10
2018-09-18T11:00:10.607Z,6.60
2018-09-18T11:01:10.641Z,6.90
2018-09-18T11:02:10.770Z,6.00
2018-09-18T11:03:10.666Z,6.90
2018-09-18T11:04:10.783Z,6.70
2018-09-18T11:05:10.692Z,6.70
2018-09-18T11:06:10.691Z,6.50
2018-09-18T11:07:10.825Z,7.90
2018-09-18T11:08:10.934Z,6.40
2018-09-18T11:09:10.997Z,7.40
2018-09-18T11:10:10.789Z,6.60
2018-09-18T11:11:10.837Z,6.80
2018-09-18T11:12:10.784Z,6.10
2018-09-18T11:13:10.909Z,6.50
2018-09-18T11:14:11.209Z,6.50
2018-09-18T11:15:10.818Z,6.60
2018-09-18T11:16:11.044Z,6.80
2018-09-18T11:17:10.875Z,7.40
2018-09-18T11:18:10.881Z,7.20
2018-09-18T11:19:10.893Z,7.60
2018-09-18T11:20:11.133Z,7.40
2018-09-18T11:21:10.930Z,6.90
2018-09-18T11:22:11.014Z,6.50
2018-09-18T11:23:11.498Z,9.70
2018-09-18T11:24:11.083Z,6.60
2018-09-18T11:25:11.269Z,6.00
2018-09-18T11:26:11.524Z,6.20
2018-09-18T11:27:11.007Z,6.90
2018-09-18T11:28:11.034Z,9.30
2018-09-18T11:29:11.035Z,6.10
2018-09-18T11:30:11.166Z,7.10
2018-09-18T11:31:11.133Z,7.10
2018-09-18T11:32:11.095Z,7.20
2018-09-18T11:33:11.127Z,6.30
2018-09-18T11:34:11.659Z,6.10
2018-09-18T11:35:11.240Z,7.60
2018-09-18T11:36:11.159Z,6.10
2018-09-18T11:37:11.159Z,6.10
2018-09-18T11:38:11.172Z,6.10
2018-09-18T11:39:11.188Z,6.30
2018-09-18T11:40:11.363Z,6.30
2018-09-18T11:41:11.223Z,5.70
2018-09-18T11:42:11.235Z,6.60
2018-09-18T11:43:11.251Z,6.20
2018-09-18T11:44:11.272Z,6.10
2018-09-18T11:45:11.398Z,5.90
2018-09-18T11:46:11.308Z,5.80
2018-09-18T11:47:11.322Z,6.00
2018-09-18T11:48:11.331Z,6.50
2018-09-18T11:49:11.351Z,6.20
2018-09-18T11:50:11.469Z,6.60
2018-09-18T11:51:11.398Z,5.80
2018-09-18T11:52:11.386Z,6.40
2018-09-18T11:53:11.405Z,6.10
2018-09-18T11:54:11.428Z,6.20
2018-09-18T11:55:11.699Z,7.50
2018-09-18T11:56:11.494Z,7.10
2018-09-18T11:57:11.498Z,6.20
2018-09-18T11:58:11.495Z,6.70
2018-09-18T11:59:11.493Z,7.00
2018-09-18T12:00:11.634Z,9.30
2018-09-18T12:01:11.539Z,6.30
2018-09-18T12:02:11.538Z,7.20
2018-09-18T12:03:11.659Z,6.20
2018-09-18T12:04:11.569Z,7.60
2018-09-18T12:05:11.787Z,6.40
2018-09-18T12:06:11.629Z,7.70
2018-09-18T12:07:11.637Z,7.10
2018-09-18T12:08:11.648Z,6.10
2018-09-18T12:09:11.681Z,5.50
2018-09-18T12:10:11.768Z,5.50
2018-09-18T12:11:11.693Z,6.20
2018-09-18T12:12:11.701Z,6.30
2018-09-18T12:13:11.711Z,7.70
2018-09-18T12:14:11.742Z,5.90
2018-09-18T12:15:12.006Z,6.20
2018-09-18T12:16:11.770Z,7.40
2018-09-18T12:17:11.781Z,5.40
2018-09-18T12:18:11.850Z,5.80
2018-09-18T12:19:11.833Z,5.30
2018-09-18T12:20:11.839Z,5.30
2018-09-18T12:21:11.966Z,5.30
2018-09-18T12:22:11.946Z,5.20
2018-09-18T12:23:12.399Z,5.30
2018-09-18T12:24:11.903Z,5.20
2018-09-18T12:25:11.915Z,6.00
2018-09-18T12:26:11.935Z,5.20
2018-09-18T12:27:12.034Z,6.70
2018-09-18T12:28:11.961Z,5.90
2018-09-18T12:29:11.980Z,5.70
2018-09-18T12:30:11.998Z,6.00
2018-09-18T12:31:12.015Z,5.10
2018-09-18T12:32:12.139Z,5.20
2018-09-18T12:33:12.038Z,6.20
2018-09-18T12:34:12.049Z,5.10
2018-09-18T12:35:12.129Z,5.10
2018-09-18T12:36:12.100Z,5.70
2018-09-18T12:37:12.365Z,5.20
2018-09-18T12:38:12.138Z,5.40
2018-09-18T12:39:12.138Z,5.00
2018-09-18T12:40:12.154Z,6.00
2018-09-18T12:41:12.199Z,7.20
2018-09-18T12:42:12.522Z,5.00
2018-09-18T12:43:12.413Z,6.40
2018-09-18T12:44:12.227Z,5.20
2018-09-18T12:45:12.258Z,4.90
2018-09-18T12:46:12.258Z,7.20
2018-09-18T12:47:12.548Z,5.80
2018-09-18T12:48:12.295Z,4.70
2018-09-18T12:49:12.330Z,5.10
2018-09-18T12:50:12.634Z,5.90
2018-09-18T12:51:12.364Z,5.40
2018-09-18T12:52:12.483Z,4.30
2018-09-18T12:53:12.402Z,6.30
2018-09-18T12:54:12.501Z,4.40
2018-09-18T12:55:12.433Z,4.10
2018-09-18T12:56:12.497Z,4.30
2018-09-18T12:57:12.868Z,4.10
2018-09-18T12:58:12.541Z,5.30
2018-09-18T12:59:12.533Z,4.40
2018-09-18T13:00:12.628Z,4.30
2018-09-18T13:01:12.530Z,6.00
2018-09-18T13:02:12.702Z,6.00
2018-09-18T13:03:12.611Z,3.80
2018-09-18T13:04:12.585Z,4.60
2018-09-18T13:05:12.796Z,5.00
2018-09-18T13:06:12.797Z,4.60
2018-09-18T13:07:12.746Z,4.00
2018-09-18T13:08:12.769Z,4.70
2018-09-18T13:09:12.684Z,4.00
2018-09-18T13:10:12.700Z,5.80